Time;durP1;ratioP1;P1;durP2;ratioP2;P2;SDS_P1;SDS_P2;PMS_P1;PMS_P2;Temp;Humidity;BMP_temperature;BMP_pressure;BME280_temperature;BME280_humidity;BME280_pressure;Samples;Min_cycle;Max_cycle;Signal;HPM_P1;HPM_P2
2023/04/21 00:00:50;;;;;;;8.07;3.40;;;;;;;;;;4963967;28;98584;-86
2023/04/21 00:03:19;;;;;;;8.27;3.33;;;;;;;;;;4962421;28;99227;-87
2023/04/21 00:05:47;;;;;;;8.40;3.20;;;;;;;;;;4955439;28;98588;-87
2023/04/21 00:08:14;;;;;;;8.13;3.45;;;;;;;;;;4948393;28;99007;-87
2023/04/21 00:10:40;;;;;;;8.15;3.20;;;;;;;;;;4945674;28;99104;-87
2023/04/21 00:13:07;;;;;;;6.47;3.10;;;;;;;;;;4946470;28;99249;-87
2023/04/21 00:15:34;;;;;;;6.65;3.15;;;;;;;;;;4947979;28;99048;-87
2023/04/21 00:18:00;;;;;;;7.35;3.25;;;;;;;;;;4949574;28;99017;-88
2023/04/21 00:20:27;;;;;;;8.93;3.55;;;;;;;;;;4945874;28;98248;-88
2023/04/21 00:22:59;;;;;;;7.15;3.50;;;;;;;;;;4930316;28;99177;-87
2023/04/21 00:25:26;;;;;;;6.85;3.38;;;;;;;;;;4946261;28;99849;-88
2023/04/21 00:27:52;;;;;;;7.32;3.40;;;;;;;;;;4942523;28;99251;-88
2023/04/21 00:30:19;;;;;;;9.60;4.03;;;;;;;;;;4934872;28;100522;-87
2023/04/21 00:32:45;;;;;;;7.63;3.45;;;;;;;;;;4945822;28;99286;-88
2023/04/21 00:35:12;;;;;;;7.13;3.47;;;;;;;;;;4948633;28;99102;-87
2023/04/21 00:37:40;;;;;;;7.95;4.00;;;;;;;;;;4948718;28;99200;-88
2023/04/21 00:40:07;;;;;;;7.75;3.35;;;;;;;;;;4946261;28;98923;-88
2023/04/21 00:42:34;;;;;;;8.10;3.72;;;;;;;;;;4945923;28;103769;-88
2023/04/21 00:45:02;;;;;;;7.40;3.53;;;;;;;;;;4946495;28;98640;-86
2023/04/21 00:47:29;;;;;;;16.58;4.70;;;;;;;;;;4944264;28;98770;-87
2023/04/21 00:49:57;;;;;;;10.75;3.90;;;;;;;;;;4942816;28;100676;-86
2023/04/21 00:52:23;;;;;;;10.25;3.97;;;;;;;;;;4944132;28;99715;-87
2023/04/21 00:54:50;;;;;;;9.93;3.83;;;;;;;;;;4949382;28;98608;-87
2023/04/21 00:57:17;;;;;;;9.40;4.10;;;;;;;;;;4943794;28;99416;-87
2023/04/21 00:59:45;;;;;;;8.98;4.22;;;;;;;;;;4948677;28;99135;-88
2023/04/21 01:02:13;;;;;;;7.78;3.90;;;;;;;;;;4944992;28;98665;-87
2023/04/21 01:04:40;;;;;;;8.52;4.03;;;;;;;;;;4943663;28;101897;-88
2023/04/21 01:07:08;;;;;;;8.63;4.03;;;;;;;;;;4944184;28;98640;-88
2023/04/21 01:09:35;;;;;;;8.40;4.03;;;;;;;;;;4946946;28;98827;-87
2023/04/21 01:12:07;;;;;;;9.57;4.63;;;;;;;;;;4926944;28;99219;-87
2023/04/21 01:14:34;;;;;;;8.02;4.13;;;;;;;;;;4946235;28;98782;-87
2023/04/21 01:17:06;;;;;;;9.15;4.78;;;;;;;;;;4944048;28;99805;-86
2023/04/21 01:19:35;;;;;;;9.65;4.88;;;;;;;;;;4927365;28;106750;-86
2023/04/21 01:22:02;;;;;;;9.02;4.40;;;;;;;;;;4931412;28;98618;-85
2023/04/21 01:24:42;;;;;;;9.07;3.92;;;;;;;;;;4926972;28;101848;-84
2023/04/21 01:27:11;;;;;;;7.88;3.97;;;;;;;;;;4937550;28;99044;-87
2023/04/21 01:29:39;;;;;;;14.50;5.00;;;;;;;;;;4945673;28;98969;-83
2023/04/21 01:32:07;;;;;;;12.32;4.00;;;;;;;;;;4926580;28;101843;-87
2023/04/21 01:34:35;;;;;;;9.60;4.60;;;;;;;;;;4945943;28;98392;-85
2023/04/21 01:37:02;;;;;;;11.77;4.70;;;;;;;;;;4946614;28;98623;-87
2023/04/21 01:39:29;;;;;;;13.68;5.93;;;;;;;;;;4953794;28;99036;-87
2023/04/21 01:41:56;;;;;;;11.75;5.70;;;;;;;;;;4948225;28;99923;-88
2023/04/21 01:44:23;;;;;;;;;;;;;;;;;;4946765;28;101580;-88
2023/04/21 01:46:50;;;;;;;10.15;4.65;;;;;;;;;;4959925;28;102041;-88
2023/04/21 01:49:17;;;;;;;10.68;5.15;;;;;;;;;;4938977;28;101631;-87
2023/04/21 01:51:44;;;;;;;9.73;5.03;;;;;;;;;;4953775;28;99014;-87
2023/04/21 01:54:11;;;;;;;8.60;4.32;;;;;;;;;;4954598;28;99077;-86
2023/04/21 01:56:37;;;;;;;10.80;5.72;;;;;;;;;;4929228;28;99359;-87
2023/04/21 01:59:04;;;;;;;11.32;5.10;;;;;;;;;;4946070;28;100696;-87
2023/04/21 02:01:30;;;;;;;9.77;4.78;;;;;;;;;;4930088;28;99067;-87
2023/04/21 02:03:58;;;;;;;9.77;5.28;;;;;;;;;;4934021;28;98990;-88
2023/04/21 02:06:25;;;;;;;8.65;4.53;;;;;;;;;;4952306;28;99651;-88
2023/04/21 02:08:51;;;;;;;10.60;5.32;;;;;;;;;;4945239;28;102792;-87
2023/04/21 02:11:18;;;;;;;9.57;4.93;;;;;;;;;;4949775;28;99075;-85
2023/04/21 02:13:45;;;;;;;8.80;4.53;;;;;;;;;;4944910;28;99158;-84
2023/04/21 02:16:12;;;;;;;10.32;4.70;;;;;;;;;;4932860;28;101972;-85
2023/04/21 02:18:40;;;;;;;9.32;4.88;;;;;;;;;;4951478;28;99121;-86
2023/04/21 02:21:06;;;;;;;10.98;5.38;;;;;;;;;;4947984;28;98520;-85
2023/04/21 02:23:33;;;;;;;10.43;5.20;;;;;;;;;;4965506;28;99921;-83
2023/04/21 02:25:59;;;;;;;10.35;4.90;;;;;;;;;;4968635;28;98899;-84
2023/04/21 02:28:26;;;;;;;11.25;5.60;;;;;;;;;;4972472;28;98211;-84
2023/04/21 02:30:52;;;;;;;12.18;5.57;;;;;;;;;;4966876;28;98987;-85
2023/04/21 02:33:19;;;;;;;11.10;5.35;;;;;;;;;;4951548;28;99444;-85
2023/04/21 02:35:47;;;;;;;10.55;4.95;;;;;;;;;;4967816;28;98548;-85
2023/04/21 02:38:13;;;;;;;11.23;5.50;;;;;;;;;;4964361;28;99648;-83
2023/04/21 02:40:41;;;;;;;11.02;5.57;;;;;;;;;;4947796;28;98553;-83
2023/04/21 02:43:08;;;;;;;11.60;5.72;;;;;;;;;;4948101;28;100345;-85
2023/04/21 02:45:35;;;;;;;11.32;5.60;;;;;;;;;;4944330;28;99122;-85
2023/04/21 02:48:02;;;;;;;10.38;5.13;;;;;;;;;;4947187;28;98487;-84
2023/04/21 02:50:28;;;;;;;10.55;5.50;;;;;;;;;;4943361;28;98960;-85
2023/04/21 02:52:55;;;;;;;11.20;5.55;;;;;;;;;;4933351;28;99007;-85
2023/04/21 02:55:22;;;;;;;10.10;5.38;;;;;;;;;;4955900;28;99698;-84
2023/04/21 02:57:48;;;;;;;10.52;5.78;;;;;;;;;;4943964;28;99925;-86
2023/04/21 03:00:15;;;;;;;10.48;5.63;;;;;;;;;;4943543;28;98979;-84
2023/04/21 03:02:41;;;;;;;11.93;6.03;;;;;;;;;;4926077;28;100115;-85
2023/04/21 03:05:08;;;;;;;11.43;6.25;;;;;;;;;;4943494;28;101210;-84
2023/04/21 03:07:38;;;;;;;11.60;5.75;;;;;;;;;;4942511;28;99083;-87
2023/04/21 03:10:05;;;;;;;10.63;5.18;;;;;;;;;;4927950;28;101719;-86
2023/04/21 03:12:32;;;;;;;10.55;5.60;;;;;;;;;;4943851;28;98348;-87
2023/04/21 03:14:58;;;;;;;10.27;5.40;;;;;;;;;;4929598;28;100166;-87
2023/04/21 03:17:24;;;;;;;11.57;5.70;;;;;;;;;;4944901;28;99399;-87
2023/04/21 03:19:51;;;;;;;10.23;5.82;;;;;;;;;;4948898;28;99735;-85
2023/04/21 03:22:19;;;;;;;;;;;;;;;;;;4949719;28;98948;-85
2023/04/21 03:24:45;;;;;;;9.88;4.65;;;;;;;;;;4948831;28;123465;-87
2023/04/21 03:27:12;;;;;;;10.05;4.78;;;;;;;;;;4930435;28;98640;-87
2023/04/21 03:29:38;;;;;;;10.43;5.03;;;;;;;;;;4947231;28;101913;-87
2023/04/21 03:32:05;;;;;;;10.57;5.25;;;;;;;;;;4931505;28;101923;-87
2023/04/21 03:34:31;;;;;;;10.85;4.88;;;;;;;;;;4929170;28;101618;-86
2023/04/21 03:37:01;;;;;;;9.20;4.93;;;;;;;;;;4945155;28;101211;-87
2023/04/21 03:39:28;;;;;;;11.63;5.10;;;;;;;;;;4948790;28;99417;-87
2023/04/21 03:41:54;;;;;;;9.60;4.95;;;;;;;;;;4930238;28;101293;-86
2023/04/21 03:44:23;;;;;;;10.35;5.00;;;;;;;;;;4943458;28;102831;-85
2023/04/21 03:46:51;;;;;;;10.25;5.35;;;;;;;;;;4909368;28;99084;-85
2023/04/21 03:49:18;;;;;;;10.73;5.25;;;;;;;;;;4943829;28;99472;-86
2023/04/21 03:51:45;;;;;;;10.10;4.95;;;;;;;;;;4946233;28;99499;-84
2023/04/21 03:54:11;;;;;;;9.77;4.70;;;;;;;;;;4949187;28;98821;-84
2023/04/21 03:56:38;;;;;;;9.57;4.90;;;;;;;;;;4946138;28;101047;-84
2023/04/21 03:59:05;;;;;;;9.43;4.82;;;;;;;;;;4946338;28;98995;-85
2023/04/21 04:01:32;;;;;;;10.45;4.93;;;;;;;;;;4946511;28;100494;-84
2023/04/21 04:03:59;;;;;;;10.80;5.20;;;;;;;;;;4947460;28;100589;-85
2023/04/21 04:06:27;;;;;;;8.70;4.68;;;;;;;;;;4946363;28;98551;-84
2023/04/21 04:08:53;;;;;;;10.70;4.90;;;;;;;;;;4946918;28;100028;-85
2023/04/21 04:11:20;;;;;;;11.13;4.80;;;;;;;;;;4947049;28;99310;-86
2023/04/21 04:13:46;;;;;;;12.48;5.03;;;;;;;;;;4955701;28;98579;-89
2023/04/21 04:16:13;;;;;;;9.27;4.50;;;;;;;;;;4963536;28;99523;-89
2023/04/21 04:18:39;;;;;;;9.50;4.70;;;;;;;;;;4960545;28;98913;-92
2023/04/21 04:21:06;;;;;;;9.95;4.75;;;;;;;;;;4960784;28;98937;-91
2023/04/21 04:23:36;;;;;;;9.85;5.00;;;;;;;;;;4962444;28;98628;-90
2023/04/21 04:26:06;;;;;;;9.02;5.00;;;;;;;;;;4948442;28;97853;-87
2023/04/21 04:28:33;;;;;;;10.93;5.65;;;;;;;;;;4945870;28;99060;-85
2023/04/21 04:31:03;;;;;;;11.85;4.47;;;;;;;;;;4929152;28;100194;-85
2023/04/21 04:33:29;;;;;;;8.93;4.70;;;;;;;;;;4945391;28;99491;-85
2023/04/21 04:35:57;;;;;;;9.43;4.80;;;;;;;;;;4948628;28;100021;-85
2023/04/21 04:38:23;;;;;;;9.32;4.47;;;;;;;;;;4946313;28;99016;-88
2023/04/21 04:40:53;;;;;;;9.18;4.93;;;;;;;;;;4947196;28;98849;-87
2023/04/21 04:43:20;;;;;;;10.18;5.10;;;;;;;;;;4952190;28;100484;-87
2023/04/21 04:45:47;;;;;;;10.57;5.88;;;;;;;;;;4949129;28;99013;-86
2023/04/21 04:48:13;;;;;;;9.18;5.00;;;;;;;;;;4944302;28;100893;-85
2023/04/21 04:50:40;;;;;;;9.15;4.75;;;;;;;;;;4945683;28;98869;-86
2023/04/21 04:53:06;;;;;;;9.32;4.90;;;;;;;;;;4945532;28;98579;-85
2023/04/21 04:55:33;;;;;;;9.10;4.82;;;;;;;;;;4927800;28;105571;-86
2023/04/21 04:58:00;;;;;;;11.15;5.57;;;;;;;;;;4947783;28;100009;-87
2023/04/21 05:00:27;;;;;;;12.15;4.72;;;;;;;;;;4944648;28;100537;-88
2023/04/21 05:02:54;;;;;;;13.52;5.07;;;;;;;;;;4947527;28;99319;-88
2023/04/21 05:05:21;;;;;;;10.27;5.20;;;;;;;;;;4948159;28;98610;-87
2023/04/21 05:07:47;;;;;;;9.85;5.05;;;;;;;;;;4944062;28;101574;-87
2023/04/21 05:10:14;;;;;;;11.18;5.07;;;;;;;;;;4945909;28;99410;-86
2023/04/21 05:12:40;;;;;;;11.00;5.25;;;;;;;;;;4945538;28;99123;-87
2023/04/21 05:15:07;;;;;;;10.10;5.00;;;;;;;;;;4947154;28;97899;-86
2023/04/21 05:17:34;;;;;;;10.05;5.30;;;;;;;;;;4945596;28;99361;-88
2023/04/21 05:20:00;;;;;;;9.55;4.97;;;;;;;;;;4948501;28;98570;-85
2023/04/21 05:22:27;;;;;;;11.50;5.40;;;;;;;;;;4942748;28;99252;-86
2023/04/21 05:24:53;;;;;;;9.32;5.00;;;;;;;;;;4946136;28;98739;-86
2023/04/21 05:27:20;;;;;;;9.98;5.30;;;;;;;;;;4945912;28;98759;-86
2023/04/21 05:29:46;;;;;;;9.63;5.40;;;;;;;;;;4950032;28;101010;-85
2023/04/21 05:32:13;;;;;;;11.50;5.55;;;;;;;;;;4949132;28;98548;-84
2023/04/21 05:34:40;;;;;;;10.93;4.97;;;;;;;;;;4957748;28;99125;-85
2023/04/21 05:37:06;;;;;;;11.60;5.13;;;;;;;;;;4955983;28;99808;-86
2023/04/21 05:39:32;;;;;;;9.65;4.97;;;;;;;;;;4955079;28;98213;-87
2023/04/21 05:41:59;;;;;;;10.50;5.57;;;;;;;;;;4960615;28;98728;-85
2023/04/21 05:44:26;;;;;;;10.63;5.50;;;;;;;;;;4941106;28;98395;-86
2023/04/21 05:46:52;;;;;;;10.85;5.30;;;;;;;;;;4956622;28;99641;-85
2023/04/21 05:49:19;;;;;;;10.52;5.45;;;;;;;;;;4936098;28;99291;-85
2023/04/21 05:51:45;;;;;;;11.13;5.20;;;;;;;;;;4952663;28;98550;-84
2023/04/21 05:54:12;;;;;;;10.88;5.85;;;;;;;;;;4932494;28;99014;-84
2023/04/21 05:56:38;;;;;;;11.30;6.18;;;;;;;;;;4947161;28;99345;-85
2023/04/21 05:59:05;;;;;;;9.43;5.18;;;;;;;;;;4943421;28;99159;-84
2023/04/21 06:01:32;;;;;;;10.18;5.65;;;;;;;;;;4944273;28;99047;-84
2023/04/21 06:03:59;;;;;;;11.00;5.90;;;;;;;;;;4929948;28;99660;-85
2023/04/21 06:06:26;;;;;;;10.05;5.38;;;;;;;;;;4943487;28;99030;-84
2023/04/21 06:08:53;;;;;;;10.05;5.35;;;;;;;;;;4944571;28;99727;-87
2023/04/21 06:11:20;;;;;;;12.57;6.50;;;;;;;;;;4945595;28;99360;-86
2023/04/21 06:13:46;;;;;;;12.02;5.70;;;;;;;;;;4947102;28;99504;-87
2023/04/21 06:16:13;;;;;;;10.95;5.65;;;;;;;;;;4943746;28;99371;-87
2023/04/21 06:18:39;;;;;;;10.50;5.65;;;;;;;;;;4950536;28;98825;-87
2023/04/21 06:21:06;;;;;;;11.75;5.90;;;;;;;;;;4943156;28;100545;-87
2023/04/21 06:23:32;;;;;;;10.35;5.43;;;;;;;;;;4944386;28;100527;-87
2023/04/21 06:26:04;;;;;;;10.63;5.55;;;;;;;;;;4946509;28;99124;-86
2023/04/21 06:28:31;;;;;;;9.48;5.10;;;;;;;;;;4943195;28;98727;-87
2023/04/21 06:30:57;;;;;;;9.23;5.25;;;;;;;;;;4944622;28;98848;-87
2023/04/21 06:33:25;;;;;;;9.63;5.00;;;;;;;;;;4948588;28;99191;-88
2023/04/21 06:35:52;;;;;;;9.77;5.28;;;;;;;;;;4929737;28;101561;-89
2023/04/21 06:38:19;;;;;;;10.25;5.47;;;;;;;;;;4928336;28;99145;-86
2023/04/21 06:40:45;;;;;;;9.95;5.50;;;;;;;;;;4945726;28;98536;-85
2023/04/21 06:43:12;;;;;;;9.55;5.40;;;;;;;;;;4948738;28;98916;-86
2023/04/21 06:45:38;;;;;;;10.27;5.47;;;;;;;;;;4948714;28;99441;-85
2023/04/21 06:48:05;;;;;;;11.32;5.60;;;;;;;;;;4932734;28;99382;-86
2023/04/21 06:50:31;;;;;;;10.27;5.75;;;;;;;;;;4947996;28;98579;-86
2023/04/21 06:52:58;;;;;;;9.85;5.18;;;;;;;;;;4948566;28;99115;-87
2023/04/21 06:55:24;;;;;;;10.60;5.07;;;;;;;;;;4947897;28;99316;-87
2023/04/21 06:57:51;;;;;;;10.07;5.00;;;;;;;;;;4949425;28;98709;-86
2023/04/21 07:00:17;;;;;;;10.07;5.22;;;;;;;;;;4947486;28;99297;-86
2023/04/21 07:02:44;;;;;;;10.68;5.88;;;;;;;;;;4951390;28;99303;-87
2023/04/21 07:05:11;;;;;;;9.68;4.90;;;;;;;;;;4950991;28;98773;-89
2023/04/21 07:07:37;;;;;;;9.88;5.70;;;;;;;;;;4957918;28;98858;-88
2023/04/21 07:10:04;;;;;;;10.88;5.47;;;;;;;;;;4963381;28;98580;-85
2023/04/21 07:12:31;;;;;;;10.65;5.25;;;;;;;;;;4960244;28;99500;-85
2023/04/21 07:14:57;;;;;;;10.32;5.22;;;;;;;;;;4952811;28;99433;-85
2023/04/21 07:17:24;;;;;;;11.48;5.50;;;;;;;;;;4937047;28;98170;-84
2023/04/21 07:19:50;;;;;;;10.30;5.65;;;;;;;;;;4955450;28;99206;-85
2023/04/21 07:22:17;;;;;;;12.63;6.90;;;;;;;;;;4951943;28;98819;-85
2023/04/21 07:24:43;;;;;;;15.75;6.28;;;;;;;;;;4946860;28;99360;-88
2023/04/21 07:27:10;;;;;;;14.45;7.50;;;;;;;;;;4929144;28;102666;-87
2023/04/21 07:29:36;;;;;;;13.63;7.75;;;;;;;;;;4949688;28;99360;-85
2023/04/21 07:32:03;;;;;;;11.32;6.53;;;;;;;;;;4945970;28;98938;-85
2023/04/21 07:34:29;;;;;;;12.10;7.63;;;;;;;;;;4943377;28;99146;-85
2023/04/21 07:36:55;;;;;;;12.50;7.95;;;;;;;;;;4945825;28;99627;-84
2023/04/21 07:39:22;;;;;;;12.48;7.35;;;;;;;;;;4946583;28;98911;-84
2023/04/21 07:41:49;;;;;;;14.80;8.25;;;;;;;;;;4935280;28;98562;-85
2023/04/21 07:44:15;;;;;;;16.90;9.60;;;;;;;;;;4938235;28;98944;-86
2023/04/21 07:46:43;;;;;;;13.77;8.43;;;;;;;;;;4945985;28;99397;-85
2023/04/21 07:49:09;;;;;;;17.38;9.18;;;;;;;;;;4943873;28;100455;-85
2023/04/21 07:51:36;;;;;;;13.60;8.32;;;;;;;;;;4949688;28;99269;-86
2023/04/21 07:54:02;;;;;;;17.85;11.57;;;;;;;;;;4945304;28;99591;-87
2023/04/21 07:56:30;;;;;;;14.55;8.35;;;;;;;;;;4944530;28;99043;-87
2023/04/21 07:58:56;;;;;;;;;;;;;;;;;;4945020;28;98932;-84
2023/04/21 08:01:23;;;;;;;12.70;8.38;;;;;;;;;;4927789;28;116463;-84
2023/04/21 08:03:50;;;;;;;15.02;9.00;;;;;;;;;;4945424;28;98965;-84
2023/04/21 08:06:16;;;;;;;13.75;8.60;;;;;;;;;;4945843;28;99619;-83
2023/04/21 08:08:43;;;;;;;15.35;9.70;;;;;;;;;;4946269;28;99602;-84
2023/04/21 08:11:10;;;;;;;16.13;9.32;;;;;;;;;;4947558;28;98520;-83
2023/04/21 08:13:37;;;;;;;14.43;8.77;;;;;;;;;;4948012;28;99982;-79
2023/04/21 08:16:03;;;;;;;17.05;11.32;;;;;;;;;;4942359;28;99092;-80
2023/04/21 08:18:30;;;;;;;16.17;10.65;;;;;;;;;;4942973;28;99352;-79
2023/04/21 08:20:57;;;;;;;17.58;11.45;;;;;;;;;;4942630;28;99435;-79
2023/04/21 08:23:23;;;;;;;15.07;9.88;;;;;;;;;;4943856;28;98908;-78
2023/04/21 08:25:50;;;;;;;24.00;11.68;;;;;;;;;;4936177;28;100089;-80
2023/04/21 08:28:16;;;;;;;15.25;8.07;;;;;;;;;;4941878;28;99184;-78
2023/04/21 08:30:43;;;;;;;12.30;6.10;;;;;;;;;;4945088;28;105337;-80
2023/04/21 08:33:12;;;;;;;10.45;5.43;;;;;;;;;;4945402;28;99102;-78
2023/04/21 08:35:40;;;;;;;10.50;4.85;;;;;;;;;;4947697;28;99382;-77
2023/04/21 08:38:26;;;;;;;10.10;4.72;;;;;;;;;;4943444;28;99461;-78
2023/04/21 08:40:54;;;;;;;8.60;4.10;;;;;;;;;;4944212;28;100489;-77
2023/04/21 08:43:20;;;;;;;7.43;3.92;;;;;;;;;;4945256;28;98576;-78
2023/04/21 08:45:47;;;;;;;7.45;3.85;;;;;;;;;;4933162;28;99018;-77
2023/04/21 08:48:17;;;;;;;8.23;4.20;;;;;;;;;;4943392;28;100978;-78
2023/04/21 08:50:45;;;;;;;11.70;4.43;;;;;;;;;;4944850;28;99108;-78
2023/04/21 08:53:12;;;;;;;8.35;4.03;;;;;;;;;;4943081;28;99310;-79
2023/04/21 08:55:39;;;;;;;25.05;5.15;;;;;;;;;;4947297;28;98841;-79
2023/04/21 08:58:06;;;;;;;11.50;4.10;;;;;;;;;;4943444;28;99157;-79
2023/04/21 09:00:32;;;;;;;11.73;4.22;;;;;;;;;;4924505;28;101740;-79
2023/04/21 09:02:59;;;;;;;10.68;4.00;;;;;;;;;;4940721;28;100572;-79
2023/04/21 09:05:29;;;;;;;8.35;3.70;;;;;;;;;;4941757;28;100185;-79
2023/04/21 09:08:09;;;;;;;8.60;4.10;;;;;;;;;;4942094;28;99370;-79
2023/04/21 09:10:48;;;;;;;10.38;4.10;;;;;;;;;;4941118;28;98761;-80
2023/04/21 09:13:16;;;;;;;7.88;3.78;;;;;;;;;;4941118;28;98978;-79
2023/04/21 09:15:44;;;;;;;8.40;4.35;;;;;;;;;;4931856;28;99402;-79
2023/04/21 09:18:16;;;;;;;8.20;4.10;;;;;;;;;;4947234;28;99900;-80
2023/04/21 09:20:44;;;;;;;8.55;3.80;;;;;;;;;;4945320;28;98462;-80
2023/04/21 09:23:10;;;;;;;8.27;3.80;;;;;;;;;;4943821;28;99073;-80
2023/04/21 09:25:38;;;;;;;8.18;3.90;;;;;;;;;;4943743;28;100804;-80
2023/04/21 09:28:08;;;;;;;7.57;3.58;;;;;;;;;;4942547;28;99867;-80
2023/04/21 09:30:35;;;;;;;8.10;3.50;;;;;;;;;;4942015;28;99321;-80
2023/04/21 09:33:01;;;;;;;;;;;;;;;;;;4926653;28;99060;-80
2023/04/21 09:35:35;;;;;;;6.82;3.45;;;;;;;;;;4932905;28;99162;-81
2023/04/21 09:38:02;;;;;;;7.47;3.80;;;;;;;;;;4935142;28;98816;-80
2023/04/21 09:40:28;;;;;;;;;;;;;;;;;;4928836;28;99166;-78
2023/04/21 09:42:55;;;;;;;6.78;3.53;;;;;;;;;;4942240;28;107370;-78
2023/04/21 09:45:24;;;;;;;8.07;3.83;;;;;;;;;;4942221;28;97986;-79
2023/04/21 09:48:08;;;;;;;7.72;3.72;;;;;;;;;;4947295;28;99266;-79
2023/04/21 09:50:35;;;;;;;8.27;3.78;;;;;;;;;;4947432;28;99167;-78
2023/04/21 09:53:13;;;;;;;7.13;3.35;;;;;;;;;;4946432;28;99614;-78
2023/04/21 09:55:41;;;;;;;6.75;3.50;;;;;;;;;;4946905;28;100354;-81
2023/04/21 09:58:08;;;;;;;6.80;3.45;;;;;;;;;;4928402;28;98545;-79
2023/04/21 10:00:38;;;;;;;7.43;3.75;;;;;;;;;;4944688;28;101893;-79
2023/04/21 10:03:09;;;;;;;8.48;4.10;;;;;;;;;;4961263;28;98930;-79
2023/04/21 10:05:37;;;;;;;6.93;3.63;;;;;;;;;;4961495;28;99113;-79
2023/04/21 10:08:10;;;;;;;6.97;3.45;;;;;;;;;;4962019;28;99699;-81
2023/04/21 10:10:37;;;;;;;7.68;3.97;;;;;;;;;;4961855;28;97797;-79
2023/04/21 10:13:03;;;;;;;9.48;4.53;;;;;;;;;;4964294;28;98395;-79
2023/04/21 10:15:40;;;;;;;8.90;4.35;;;;;;;;;;4956565;28;100305;-79
2023/04/21 10:18:12;;;;;;;7.50;3.80;;;;;;;;;;4962351;28;99262;-78
2023/04/21 10:21:00;;;;;;;6.93;3.70;;;;;;;;;;4965952;28;102924;-79
2023/04/21 10:23:37;;;;;;;7.47;3.83;;;;;;;;;;4961189;28;101986;-79
2023/04/21 10:26:07;;;;;;;9.35;3.80;;;;;;;;;;4961617;28;99327;-79
2023/04/21 10:28:41;;;;;;;7.50;3.92;;;;;;;;;;4960524;28;99221;-78
2023/04/21 10:31:19;;;;;;;8.25;4.10;;;;;;;;;;4958520;28;98827;-79
2023/04/21 10:34:11;;;;;;;8.15;4.22;;;;;;;;;;4955064;28;98944;-78
2023/04/21 10:36:47;;;;;;;7.05;3.92;;;;;;;;;;4925139;28;104154;-77
2023/04/21 10:39:30;;;;;;;8.70;4.32;;;;;;;;;;4961212;28;98979;-79
2023/04/21 10:41:57;;;;;;;8.73;4.05;;;;;;;;;;4948010;28;100154;-79
2023/04/21 10:44:24;;;;;;;;;;;;;;;;;;4955864;28;100063;-79
2023/04/21 10:46:52;;;;;;;8.70;4.60;;;;;;;;;;4955050;28;98575;-79
2023/04/21 10:49:26;;;;;;;9.35;5.38;;;;;;;;;;4956611;28;101183;-81
2023/04/21 10:51:58;;;;;;;8.75;5.70;;;;;;;;;;4949994;28;98816;-81
2023/04/21 10:54:25;;;;;;;10.60;7.18;;;;;;;;;;4947217;28;99596;-79
2023/04/21 10:56:56;;;;;;;10.27;7.03;;;;;;;;;;4947080;28;99909;-79
2023/04/21 10:59:23;;;;;;;11.57;7.32;;;;;;;;;;4927714;28;99210;-80
2023/04/21 11:01:50;;;;;;;9.98;6.38;;;;;;;;;;4942743;28;100584;-80
2023/04/21 11:04:17;;;;;;;9.77;6.53;;;;;;;;;;4942280;28;99621;-80
2023/04/21 11:07:03;;;;;;;10.52;6.78;;;;;;;;;;4935221;28;99415;-81
2023/04/21 11:09:30;;;;;;;10.70;6.78;;;;;;;;;;4948575;28;99791;-79
2023/04/21 11:11:57;;;;;;;9.88;6.45;;;;;;;;;;4946469;28;98501;-83
2023/04/21 11:14:24;;;;;;;;;;;;;;;;;;4946618;28;99386;-79
2023/04/21 11:16:51;;;;;;;10.52;6.32;;;;;;;;;;4927650;28;99159;-78
2023/04/21 11:19:19;;;;;;;10.88;7.15;;;;;;;;;;4943808;28;98812;-79
2023/04/21 11:21:47;;;;;;;11.05;6.72;;;;;;;;;;4941431;28;99624;-79
2023/04/21 11:24:14;;;;;;;10.68;6.82;;;;;;;;;;4943980;28;100779;-79
2023/04/21 11:26:43;;;;;;;10.50;6.60;;;;;;;;;;4932418;28;98367;-79
2023/04/21 11:29:10;;;;;;;12.20;6.90;;;;;;;;;;4943758;28;98812;-79
2023/04/21 11:31:39;;;;;;;10.55;6.20;;;;;;;;;;4946868;28;100455;-79
2023/04/21 11:34:06;;;;;;;13.68;6.32;;;;;;;;;;4941991;28;99682;-78
2023/04/21 11:36:34;;;;;;;10.02;6.50;;;;;;;;;;4943122;28;99226;-79
2023/04/21 11:39:06;;;;;;;10.23;6.22;;;;;;;;;;4944823;28;98891;-78
2023/04/21 11:41:33;;;;;;;10.07;6.32;;;;;;;;;;4943438;28;101958;-79
2023/04/21 11:44:00;;;;;;;11.15;6.03;;;;;;;;;;4943893;28;100689;-79
2023/04/21 11:46:27;;;;;;;10.23;6.47;;;;;;;;;;4941760;28;99536;-78
2023/04/21 11:49:01;;;;;;;10.70;6.18;;;;;;;;;;4942821;28;99489;-79
2023/04/21 11:51:33;;;;;;;9.38;6.30;;;;;;;;;;4945423;28;100449;-78
2023/04/21 11:54:01;;;;;;;9.80;6.20;;;;;;;;;;4951469;28;98676;-78
2023/04/21 11:56:27;;;;;;;9.45;5.85;;;;;;;;;;4948550;28;99068;-78
2023/04/21 11:58:54;;;;;;;8.90;5.72;;;;;;;;;;4949681;28;99252;-78
2023/04/21 12:01:21;;;;;;;;;;;;;;;;;;4949595;28;99600;-78
2023/04/21 12:03:51;;;;;;;9.13;5.68;;;;;;;;;;4950193;28;108252;-78
2023/04/21 12:06:27;;;;;;;8.90;5.22;;;;;;;;;;4951420;28;98768;-79
2023/04/21 12:08:55;;;;;;;9.35;5.75;;;;;;;;;;4941899;28;103027;-78
2023/04/21 12:11:24;;;;;;;9.35;5.78;;;;;;;;;;4946151;28;99350;-79
2023/04/21 12:13:50;;;;;;;;;;;;;;;;;;4945163;28;99089;-79
2023/04/21 12:16:17;;;;;;;8.98;5.55;;;;;;;;;;4951447;28;98758;-78
2023/04/21 12:18:43;;;;;;;8.63;5.25;;;;;;;;;;4947085;28;98965;-78
2023/04/21 12:21:13;;;;;;;9.02;5.22;;;;;;;;;;4946430;28;99161;-78
2023/04/21 12:23:39;;;;;;;9.38;5.57;;;;;;;;;;4944500;28;101384;-78
2023/04/21 12:26:06;;;;;;;8.13;5.20;;;;;;;;;;4945574;28;98960;-78
2023/04/21 12:28:33;;;;;;;9.65;5.50;;;;;;;;;;4946017;28;103302;-77
2023/04/21 12:31:00;;;;;;;8.32;5.32;;;;;;;;;;4924276;28;100109;-78
2023/04/21 12:33:27;;;;;;;8.73;4.97;;;;;;;;;;4941975;28;98981;-79
2023/04/21 12:35:53;;;;;;;9.10;5.40;;;;;;;;;;4928077;28;101598;-79
2023/04/21 12:38:20;;;;;;;8.45;5.03;;;;;;;;;;4947896;28;99447;-79
2023/04/21 12:40:47;;;;;;;8.45;5.15;;;;;;;;;;4944012;28;99541;-79
2023/04/21 12:43:13;;;;;;;8.27;4.78;;;;;;;;;;4945268;28;99343;-78
2023/04/21 12:45:40;;;;;;;8.52;5.18;;;;;;;;;;4943734;28;98870;-78
2023/04/21 12:48:06;;;;;;;7.90;4.75;;;;;;;;;;4944692;28;99886;-79
2023/04/21 12:50:33;;;;;;;8.38;4.82;;;;;;;;;;4905345;28;99254;-78
2023/04/21 12:52:59;;;;;;;8.23;4.80;;;;;;;;;;4907021;28;99018;-78
2023/04/21 12:55:26;;;;;;;7.93;4.90;;;;;;;;;;4906633;28;99090;-79
2023/04/21 12:57:52;;;;;;;8.15;5.03;;;;;;;;;;4905098;28;99336;-79
2023/04/21 13:00:19;;;;;;;8.85;4.95;;;;;;;;;;4908445;28;99007;-79
2023/04/21 13:02:46;;;;;;;8.88;4.85;;;;;;;;;;4906100;28;100295;-79
2023/04/21 13:05:13;;;;;;;7.95;4.53;;;;;;;;;;4906153;28;98313;-78
2023/04/21 13:07:40;;;;;;;9.32;4.50;;;;;;;;;;4921491;28;99151;-78
2023/04/21 13:10:07;;;;;;;8.02;4.60;;;;;;;;;;4904701;28;99308;-78
2023/04/21 13:12:34;;;;;;;9.43;4.75;;;;;;;;;;4900232;28;99890;-80
2023/04/21 13:15:01;;;;;;;7.45;4.18;;;;;;;;;;4901437;28;99652;-80
2023/04/21 13:17:27;;;;;;;8.43;4.50;;;;;;;;;;4904579;28;100467;-80
2023/04/21 13:19:55;;;;;;;12.95;4.50;;;;;;;;;;4908936;28;99036;-79
2023/04/21 13:22:21;;;;;;;7.90;4.45;;;;;;;;;;4904253;28;99243;-80
2023/04/21 13:24:48;;;;;;;7.75;4.43;;;;;;;;;;4918723;28;99387;-77
2023/04/21 13:27:14;;;;;;;8.60;4.68;;;;;;;;;;4904051;28;99032;-77
2023/04/21 13:29:41;;;;;;;8.40;4.95;;;;;;;;;;4904641;28;99554;-78
2023/04/21 13:32:07;;;;;;;7.47;4.32;;;;;;;;;;4905299;28;98908;-78
2023/04/21 13:34:34;;;;;;;7.70;4.38;;;;;;;;;;4904408;28;99479;-78
2023/04/21 13:37:01;;;;;;;7.20;4.00;;;;;;;;;;4903974;28;100989;-78
2023/04/21 13:39:27;;;;;;;8.50;4.72;;;;;;;;;;4904687;28;98762;-77
2023/04/21 13:41:55;;;;;;;7.25;3.95;;;;;;;;;;4905471;28;101824;-76
2023/04/21 13:44:23;;;;;;;7.75;4.03;;;;;;;;;;4901899;28;98587;-77
2023/04/21 13:46:52;;;;;;;7.93;4.35;;;;;;;;;;4905211;28;99469;-77
2023/04/21 13:49:19;;;;;;;7.88;4.30;;;;;;;;;;4924578;28;99713;-79
2023/04/21 13:51:46;;;;;;;6.95;3.60;;;;;;;;;;4918938;28;99043;-78
2023/04/21 13:54:13;;;;;;;7.78;4.20;;;;;;;;;;4903240;28;100199;-77
2023/04/21 13:56:39;;;;;;;7.32;3.97;;;;;;;;;;4903402;28;98992;-78
2023/04/21 13:59:06;;;;;;;10.07;4.43;;;;;;;;;;4905063;28;98975;-78
2023/04/21 14:01:33;;;;;;;7.03;3.65;;;;;;;;;;4905491;28;99637;-77
2023/04/21 14:03:59;;;;;;;7.40;3.67;;;;;;;;;;4910489;28;99860;-78
2023/04/21 14:06:26;;;;;;;7.63;3.83;;;;;;;;;;4905433;28;98811;-78
2023/04/21 14:08:53;;;;;;;7.60;3.78;;;;;;;;;;4907808;28;99131;-78
2023/04/21 14:11:20;;;;;;;6.88;4.10;;;;;;;;;;4922690;28;98645;-78
2023/04/21 14:13:46;;;;;;;8.45;4.20;;;;;;;;;;4919522;28;98554;-77
2023/04/21 14:16:33;;;;;;;8.52;4.05;;;;;;;;;;4918691;28;99336;-78
2023/04/21 14:18:59;;;;;;;7.60;4.25;;;;;;;;;;4909521;28;97872;-77
2023/04/21 14:21:26;;;;;;;7.30;3.92;;;;;;;;;;4903090;28;98813;-78
2023/04/21 14:23:52;;;;;;;6.82;3.78;;;;;;;;;;4903749;28;99607;-78
2023/04/21 14:26:19;;;;;;;7.63;3.97;;;;;;;;;;4907365;28;99263;-78
2023/04/21 14:28:46;;;;;;;7.10;3.75;;;;;;;;;;4901673;28;99186;-77
2023/04/21 14:31:12;;;;;;;7.18;4.25;;;;;;;;;;4904310;28;99190;-78
2023/04/21 14:33:40;;;;;;;7.30;3.97;;;;;;;;;;4902831;28;100071;-78
2023/04/21 14:36:06;;;;;;;7.20;3.92;;;;;;;;;;4902428;28;101579;-78
2023/04/21 14:38:33;;;;;;;7.22;3.80;;;;;;;;;;4903820;28;99196;-79